sensor_id;sensor_type;location;lat;lon;timestamp;P1;durP1;ratioP1;P2;durP2;ratioP2
11078;SDS011;5592;49.234;7.268;2023-07-28T00:01:32;4.10;;;3.17;;
11078;SDS011;5592;49.234;7.268;2023-07-28T00:03:57;4.13;;;3.20;;
11078;SDS011;5592;49.234;7.268;2023-07-28T00:06:23;4.00;;;3.50;;
11078;SDS011;5592;49.234;7.268;2023-07-28T00:08:49;5.13;;;3.40;;
11078;SDS011;5592;49.234;7.268;2023-07-28T00:11:14;4.70;;;3.67;;
11078;SDS011;5592;49.234;7.268;2023-07-28T00:13:41;5.53;;;3.57;;
11078;SDS011;5592;49.234;7.268;2023-07-28T00:16:07;6.43;;;4.40;;
11078;SDS011;5592;49.234;7.268;2023-07-28T00:18:34;8.10;;;4.10;;
11078;SDS011;5592;49.234;7.268;2023-07-28T00:20:59;5.37;;;4.30;;
11078;SDS011;5592;49.234;7.268;2023-07-28T00:23:25;4.50;;;3.80;;
11078;SDS011;5592;49.234;7.268;2023-07-28T00:25:51;4.53;;;4.13;;
11078;SDS011;5592;49.234;7.268;2023-07-28T00:28:17;4.60;;;3.63;;
11078;SDS011;5592;49.234;7.268;2023-07-28T00:30:42;5.97;;;4.57;;
11078;SDS011;5592;49.234;7.268;2023-07-28T00:33:08;7.40;;;4.47;;
11078;SDS011;5592;49.234;7.268;2023-07-28T00:35:33;5.07;;;4.40;;
11078;SDS011;5592;49.234;7.268;2023-07-28T00:37:59;5.47;;;3.80;;
11078;SDS011;5592;49.234;7.268;2023-07-28T00:40:25;6.30;;;4.10;;
11078;SDS011;5592;49.234;7.268;2023-07-28T00:42:50;5.87;;;3.87;;
11078;SDS011;5592;49.234;7.268;2023-07-28T00:45:16;5.40;;;3.93;;
11078;SDS011;5592;49.234;7.268;2023-07-28T00:47:42;5.90;;;3.97;;
11078;SDS011;5592;49.234;7.268;2023-07-28T00:50:08;4.90;;;4.20;;
11078;SDS011;5592;49.234;7.268;2023-07-28T00:52:34;7.50;;;3.67;;
11078;SDS011;5592;49.234;7.268;2023-07-28T00:55:00;7.37;;;3.80;;
11078;SDS011;5592;49.234;7.268;2023-07-28T00:57:26;7.90;;;3.57;;
11078;SDS011;5592;49.234;7.268;2023-07-28T00:59:52;4.23;;;3.83;;
11078;SDS011;5592;49.234;7.268;2023-07-28T01:02:18;7.10;;;3.67;;
11078;SDS011;5592;49.234;7.268;2023-07-28T01:04:45;6.57;;;4.00;;
11078;SDS011;5592;49.234;7.268;2023-07-28T01:07:14;7.13;;;3.60;;
11078;SDS011;5592;49.234;7.268;2023-07-28T01:10:02;4.10;;;3.47;;
11078;SDS011;5592;49.234;7.268;2023-07-28T01:12:31;4.37;;;3.40;;
11078;SDS011;5592;49.234;7.268;2023-07-28T01:14:57;4.70;;;3.70;;
11078;SDS011;5592;49.234;7.268;2023-07-28T01:17:23;5.83;;;3.47;;
11078;SDS011;5592;49.234;7.268;2023-07-28T01:19:49;4.33;;;3.93;;
11078;SDS011;5592;49.234;7.268;2023-07-28T01:25:14;3.70;;;3.30;;
11078;SDS011;5592;49.234;7.268;2023-07-28T01:27:51;4.23;;;3.27;;
11078;SDS011;5592;49.234;7.268;2023-07-28T01:30:18;8.03;;;3.00;;
11078;SDS011;5592;49.234;7.268;2023-07-28T01:32:46;4.50;;;3.90;;
11078;SDS011;5592;49.234;7.268;2023-07-28T01:35:13;4.60;;;3.40;;
11078;SDS011;5592;49.234;7.268;2023-07-28T01:37:38;3.90;;;3.50;;
11078;SDS011;5592;49.234;7.268;2023-07-28T01:40:04;5.80;;;3.67;;
11078;SDS011;5592;49.234;7.268;2023-07-28T01:42:30;4.90;;;3.60;;
11078;SDS011;5592;49.234;7.268;2023-07-28T01:44:56;4.37;;;3.10;;
11078;SDS011;5592;49.234;7.268;2023-07-28T01:47:21;5.63;;;3.70;;
11078;SDS011;5592;49.234;7.268;2023-07-28T01:49:47;3.87;;;3.30;;
11078;SDS011;5592;49.234;7.268;2023-07-28T01:52:12;7.33;;;3.67;;
11078;SDS011;5592;49.234;7.268;2023-07-28T01:54:38;5.63;;;3.50;;
11078;SDS011;5592;49.234;7.268;2023-07-28T01:57:03;6.50;;;3.93;;
11078;SDS011;5592;49.234;7.268;2023-07-28T01:59:29;6.53;;;3.20;;
11078;SDS011;5592;49.234;7.268;2023-07-28T02:01:55;5.63;;;3.60;;
11078;SDS011;5592;49.234;7.268;2023-07-28T02:04:20;6.93;;;3.63;;
11078;SDS011;5592;49.234;7.268;2023-07-28T02:06:46;3.73;;;3.33;;
11078;SDS011;5592;49.234;7.268;2023-07-28T02:09:11;4.00;;;2.73;;
11078;SDS011;5592;49.234;7.268;2023-07-28T02:11:37;5.00;;;3.27;;
11078;SDS011;5592;49.234;7.268;2023-07-28T02:14:02;4.43;;;2.60;;
11078;SDS011;5592;49.234;7.268;2023-07-28T02:16:28;3.33;;;3.00;;
11078;SDS011;5592;49.234;7.268;2023-07-28T02:18:55;4.13;;;3.40;;
11078;SDS011;5592;49.234;7.268;2023-07-28T02:21:21;3.63;;;2.30;;
11078;SDS011;5592;49.234;7.268;2023-07-28T02:23:47;3.60;;;3.10;;
11078;SDS011;5592;49.234;7.268;2023-07-28T02:26:13;3.37;;;3.00;;
11078;SDS011;5592;49.234;7.268;2023-07-28T02:28:39;2.73;;;2.53;;
11078;SDS011;5592;49.234;7.268;2023-07-28T02:31:04;5.60;;;2.60;;
11078;SDS011;5592;49.234;7.268;2023-07-28T02:33:30;2.83;;;2.57;;
11078;SDS011;5592;49.234;7.268;2023-07-28T02:35:56;5.30;;;2.90;;
11078;SDS011;5592;49.234;7.268;2023-07-28T02:38:22;2.27;;;2.10;;
11078;SDS011;5592;49.234;7.268;2023-07-28T02:40:47;4.10;;;2.40;;
11078;SDS011;5592;49.234;7.268;2023-07-28T02:43:13;5.10;;;2.33;;
11078;SDS011;5592;49.234;7.268;2023-07-28T02:45:38;2.83;;;2.47;;
11078;SDS011;5592;49.234;7.268;2023-07-28T02:48:04;2.50;;;1.97;;
11078;SDS011;5592;49.234;7.268;2023-07-28T02:50:30;2.50;;;2.30;;
11078;SDS011;5592;49.234;7.268;2023-07-28T02:52:55;2.77;;;1.90;;
11078;SDS011;5592;49.234;7.268;2023-07-28T02:55:21;2.13;;;1.80;;
11078;SDS011;5592;49.234;7.268;2023-07-28T02:57:46;1.93;;;1.80;;
11078;SDS011;5592;49.234;7.268;2023-07-28T03:00:12;1.93;;;1.50;;
11078;SDS011;5592;49.234;7.268;2023-07-28T03:02:39;2.60;;;1.80;;
11078;SDS011;5592;49.234;7.268;2023-07-28T03:05:04;4.53;;;2.03;;
11078;SDS011;5592;49.234;7.268;2023-07-28T03:07:30;3.37;;;1.70;;
11078;SDS011;5592;49.234;7.268;2023-07-28T03:09:56;2.23;;;2.03;;
11078;SDS011;5592;49.234;7.268;2023-07-28T03:12:22;1.73;;;1.63;;
11078;SDS011;5592;49.234;7.268;2023-07-28T03:14:47;2.40;;;1.80;;
11078;SDS011;5592;49.234;7.268;2023-07-28T03:17:13;1.77;;;1.40;;
11078;SDS011;5592;49.234;7.268;2023-07-28T03:19:38;2.73;;;1.90;;
11078;SDS011;5592;49.234;7.268;2023-07-28T03:22:04;1.73;;;1.60;;
11078;SDS011;5592;49.234;7.268;2023-07-28T03:24:30;2.00;;;1.80;;
11078;SDS011;5592;49.234;7.268;2023-07-28T03:26:55;3.17;;;2.00;;
11078;SDS011;5592;49.234;7.268;2023-07-28T03:29:21;1.93;;;1.53;;
11078;SDS011;5592;49.234;7.268;2023-07-28T03:31:47;2.00;;;1.43;;
11078;SDS011;5592;49.234;7.268;2023-07-28T03:34:12;6.20;;;1.80;;
11078;SDS011;5592;49.234;7.268;2023-07-28T03:36:38;2.83;;;1.80;;
11078;SDS011;5592;49.234;7.268;2023-07-28T03:39:03;1.80;;;1.70;;
11078;SDS011;5592;49.234;7.268;2023-07-28T03:41:29;2.80;;;1.80;;
11078;SDS011;5592;49.234;7.268;2023-07-28T03:43:54;3.50;;;1.80;;
11078;SDS011;5592;49.234;7.268;2023-07-28T03:46:20;1.83;;;1.73;;
11078;SDS011;5592;49.234;7.268;2023-07-28T03:48:46;2.07;;;1.80;;
11078;SDS011;5592;49.234;7.268;2023-07-28T03:51:11;2.30;;;1.93;;
11078;SDS011;5592;49.234;7.268;2023-07-28T03:53:37;1.87;;;1.77;;
11078;SDS011;5592;49.234;7.268;2023-07-28T03:56:02;2.20;;;2.00;;
11078;SDS011;5592;49.234;7.268;2023-07-28T03:58:28;3.03;;;2.47;;
11078;SDS011;5592;49.234;7.268;2023-07-28T04:00:54;4.87;;;2.60;;
11078;SDS011;5592;49.234;7.268;2023-07-28T04:03:20;4.97;;;2.70;;
11078;SDS011;5592;49.234;7.268;2023-07-28T04:05:46;4.30;;;2.70;;
11078;SDS011;5592;49.234;7.268;2023-07-28T04:08:11;4.30;;;2.93;;
11078;SDS011;5592;49.234;7.268;2023-07-28T04:10:37;3.57;;;2.53;;
11078;SDS011;5592;49.234;7.268;2023-07-28T04:13:02;3.73;;;3.23;;
11078;SDS011;5592;49.234;7.268;2023-07-28T04:15:28;3.37;;;3.07;;
11078;SDS011;5592;49.234;7.268;2023-07-28T04:17:53;2.90;;;2.70;;
11078;SDS011;5592;49.234;7.268;2023-07-28T04:20:19;3.57;;;2.70;;
11078;SDS011;5592;49.234;7.268;2023-07-28T04:22:44;3.20;;;2.90;;
11078;SDS011;5592;49.234;7.268;2023-07-28T04:25:10;4.37;;;3.33;;
11078;SDS011;5592;49.234;7.268;2023-07-28T04:27:35;3.20;;;2.90;;
11078;SDS011;5592;49.234;7.268;2023-07-28T04:30:01;3.10;;;2.80;;
11078;SDS011;5592;49.234;7.268;2023-07-28T04:32:27;3.93;;;2.67;;
11078;SDS011;5592;49.234;7.268;2023-07-28T04:34:52;2.70;;;2.50;;
11078;SDS011;5592;49.234;7.268;2023-07-28T04:37:18;3.50;;;3.10;;
11078;SDS011;5592;49.234;7.268;2023-07-28T04:39:44;2.90;;;2.60;;
11078;SDS011;5592;49.234;7.268;2023-07-28T04:42:09;3.20;;;2.90;;
11078;SDS011;5592;49.234;7.268;2023-07-28T04:44:37;2.73;;;2.53;;
11078;SDS011;5592;49.234;7.268;2023-07-28T04:47:04;3.80;;;2.50;;
11078;SDS011;5592;49.234;7.268;2023-07-28T04:49:30;5.17;;;2.50;;
11078;SDS011;5592;49.234;7.268;2023-07-28T04:51:56;5.93;;;2.70;;
11078;SDS011;5592;49.234;7.268;2023-07-28T04:54:21;3.30;;;2.60;;
11078;SDS011;5592;49.234;7.268;2023-07-28T04:56:47;3.23;;;2.30;;
11078;SDS011;5592;49.234;7.268;2023-07-28T04:59:18;2.40;;;2.20;;
11078;SDS011;5592;49.234;7.268;2023-07-28T05:01:43;2.90;;;2.60;;
11078;SDS011;5592;49.234;7.268;2023-07-28T05:04:09;6.27;;;2.53;;
11078;SDS011;5592;49.234;7.268;2023-07-28T05:06:34;2.97;;;2.30;;
11078;SDS011;5592;49.234;7.268;2023-07-28T05:09:00;2.93;;;2.63;;
11078;SDS011;5592;49.234;7.268;2023-07-28T05:11:27;2.53;;;2.33;;
11078;SDS011;5592;49.234;7.268;2023-07-28T05:13:53;2.53;;;2.33;;
11078;SDS011;5592;49.234;7.268;2023-07-28T05:16:18;3.53;;;2.50;;
11078;SDS011;5592;49.234;7.268;2023-07-28T05:18:44;4.13;;;2.40;;
11078;SDS011;5592;49.234;7.268;2023-07-28T05:21:09;3.10;;;2.87;;
11078;SDS011;5592;49.234;7.268;2023-07-28T05:23:35;3.63;;;2.57;;
11078;SDS011;5592;49.234;7.268;2023-07-28T05:26:00;2.97;;;2.67;;
11078;SDS011;5592;49.234;7.268;2023-07-28T05:28:26;7.87;;;2.60;;
11078;SDS011;5592;49.234;7.268;2023-07-28T05:30:51;3.30;;;2.97;;
11078;SDS011;5592;49.234;7.268;2023-07-28T05:33:17;2.53;;;2.33;;
11078;SDS011;5592;49.234;7.268;2023-07-28T05:35:42;4.30;;;2.73;;
11078;SDS011;5592;49.234;7.268;2023-07-28T05:38:08;3.53;;;3.00;;
11078;SDS011;5592;49.234;7.268;2023-07-28T05:40:33;4.43;;;3.00;;
11078;SDS011;5592;49.234;7.268;2023-07-28T05:42:59;2.63;;;2.40;;
11078;SDS011;5592;49.234;7.268;2023-07-28T05:45:25;2.50;;;2.30;;
11078;SDS011;5592;49.234;7.268;2023-07-28T05:47:50;2.43;;;2.30;;
11078;SDS011;5592;49.234;7.268;2023-07-28T05:50:16;3.13;;;2.87;;
11078;SDS011;5592;49.234;7.268;2023-07-28T05:52:41;3.53;;;3.23;;
11078;SDS011;5592;49.234;7.268;2023-07-28T05:55:07;3.30;;;2.83;;
11078;SDS011;5592;49.234;7.268;2023-07-28T06:00:08;3.57;;;2.27;;
11078;SDS011;5592;49.234;7.268;2023-07-28T06:02:35;2.63;;;2.43;;
11078;SDS011;5592;49.234;7.268;2023-07-28T06:05:01;2.60;;;2.40;;
11078;SDS011;5592;49.234;7.268;2023-07-28T06:07:27;2.97;;;2.73;;
11078;SDS011;5592;49.234;7.268;2023-07-28T06:09:52;3.30;;;3.00;;
11078;SDS011;5592;49.234;7.268;2023-07-28T06:12:18;4.13;;;3.10;;
11078;SDS011;5592;49.234;7.268;2023-07-28T06:14:43;3.20;;;2.90;;
11078;SDS011;5592;49.234;7.268;2023-07-28T06:17:09;6.90;;;2.80;;
11078;SDS011;5592;49.234;7.268;2023-07-28T06:19:34;2.97;;;2.40;;
11078;SDS011;5592;49.234;7.268;2023-07-28T06:22:00;4.27;;;3.13;;
11078;SDS011;5592;49.234;7.268;2023-07-28T06:24:26;4.37;;;2.90;;
11078;SDS011;5592;49.234;7.268;2023-07-28T06:26:52;5.10;;;2.37;;
11078;SDS011;5592;49.234;7.268;2023-07-28T06:29:17;2.80;;;2.50;;
11078;SDS011;5592;49.234;7.268;2023-07-28T06:31:43;4.47;;;2.50;;
11078;SDS011;5592;49.234;7.268;2023-07-28T06:34:08;3.73;;;3.17;;
11078;SDS011;5592;49.234;7.268;2023-07-28T06:36:34;3.80;;;2.70;;
11078;SDS011;5592;49.234;7.268;2023-07-28T06:38:59;3.87;;;2.70;;
11078;SDS011;5592;49.234;7.268;2023-07-28T06:41:25;4.80;;;2.90;;
11078;SDS011;5592;49.234;7.268;2023-07-28T06:43:50;8.60;;;3.00;;
11078;SDS011;5592;49.234;7.268;2023-07-28T06:46:16;3.40;;;2.77;;
11078;SDS011;5592;49.234;7.268;2023-07-28T06:48:42;4.33;;;2.60;;
11078;SDS011;5592;49.234;7.268;2023-07-28T06:51:07;4.83;;;2.53;;
11078;SDS011;5592;49.234;7.268;2023-07-28T06:53:33;7.00;;;2.70;;
11078;SDS011;5592;49.234;7.268;2023-07-28T06:55:59;3.23;;;2.50;;
11078;SDS011;5592;49.234;7.268;2023-07-28T06:58:25;2.57;;;2.37;;
11078;SDS011;5592;49.234;7.268;2023-07-28T07:00:51;2.67;;;2.43;;
11078;SDS011;5592;49.234;7.268;2023-07-28T07:03:16;6.13;;;2.80;;
11078;SDS011;5592;49.234;7.268;2023-07-28T07:05:42;7.50;;;3.20;;
11078;SDS011;5592;49.234;7.268;2023-07-28T07:08:09;7.00;;;3.03;;
11078;SDS011;5592;49.234;7.268;2023-07-28T07:10:35;5.60;;;3.10;;
11078;SDS011;5592;49.234;7.268;2023-07-28T07:13:01;4.07;;;3.40;;
11078;SDS011;5592;49.234;7.268;2023-07-28T07:15:27;6.10;;;3.70;;
11078;SDS011;5592;49.234;7.268;2023-07-28T07:17:53;6.93;;;3.70;;
11078;SDS011;5592;49.234;7.268;2023-07-28T07:20:19;4.90;;;3.40;;
11078;SDS011;5592;49.234;7.268;2023-07-28T07:22:44;3.73;;;3.27;;
11078;SDS011;5592;49.234;7.268;2023-07-28T07:25:10;5.60;;;4.17;;
11078;SDS011;5592;49.234;7.268;2023-07-28T07:27:36;11.37;;;4.93;;
11078;SDS011;5592;49.234;7.268;2023-07-28T07:30:01;5.07;;;4.40;;
11078;SDS011;5592;49.234;7.268;2023-07-28T07:32:29;11.37;;;5.00;;
11078;SDS011;5592;49.234;7.268;2023-07-28T07:34:54;5.30;;;4.80;;
11078;SDS011;5592;49.234;7.268;2023-07-28T07:37:20;6.37;;;5.50;;
11078;SDS011;5592;49.234;7.268;2023-07-28T07:39:45;4.87;;;4.47;;
11078;SDS011;5592;49.234;7.268;2023-07-28T07:42:11;9.00;;;4.70;;
11078;SDS011;5592;49.234;7.268;2023-07-28T07:44:38;7.53;;;5.33;;
11078;SDS011;5592;49.234;7.268;2023-07-28T07:47:11;4.73;;;4.17;;
11078;SDS011;5592;49.234;7.268;2023-07-28T07:49:39;3.57;;;3.27;;
11078;SDS011;5592;49.234;7.268;2023-07-28T07:52:06;6.33;;;3.27;;
11078;SDS011;5592;49.234;7.268;2023-07-28T07:54:32;6.90;;;2.83;;
11078;SDS011;5592;49.234;7.268;2023-07-28T07:56:57;4.93;;;3.27;;
11078;SDS011;5592;49.234;7.268;2023-07-28T07:59:23;3.30;;;2.83;;
11078;SDS011;5592;49.234;7.268;2023-07-28T08:01:52;4.63;;;2.87;;
11078;SDS011;5592;49.234;7.268;2023-07-28T08:04:18;2.83;;;2.63;;
11078;SDS011;5592;49.234;7.268;2023-07-28T08:06:44;3.47;;;2.43;;
11078;SDS011;5592;49.234;7.268;2023-07-28T08:09:09;2.90;;;2.67;;
11078;SDS011;5592;49.234;7.268;2023-07-28T08:11:35;3.83;;;2.30;;
11078;SDS011;5592;49.234;7.268;2023-07-28T08:14:00;3.13;;;2.33;;
11078;SDS011;5592;49.234;7.268;2023-07-28T08:16:26;3.37;;;2.20;;
11078;SDS011;5592;49.234;7.268;2023-07-28T08:18:51;2.93;;;2.50;;
11078;SDS011;5592;49.234;7.268;2023-07-28T08:21:17;3.57;;;2.27;;
11078;SDS011;5592;49.234;7.268;2023-07-28T08:23:43;3.03;;;2.10;;
11078;SDS011;5592;49.234;7.268;2023-07-28T08:26:09;4.03;;;2.10;;
11078;SDS011;5592;49.234;7.268;2023-07-28T08:28:34;7.30;;;2.23;;
11078;SDS011;5592;49.234;7.268;2023-07-28T08:31:00;4.57;;;2.80;;
11078;SDS011;5592;49.234;7.268;2023-07-28T08:33:26;5.90;;;2.90;;
11078;SDS011;5592;49.234;7.268;2023-07-28T08:35:52;2.90;;;2.30;;
11078;SDS011;5592;49.234;7.268;2023-07-28T08:38:17;5.67;;;2.83;;
11078;SDS011;5592;49.234;7.268;2023-07-28T08:40:43;3.53;;;3.00;;
11078;SDS011;5592;49.234;7.268;2023-07-28T08:43:09;3.30;;;2.67;;
11078;SDS011;5592;49.234;7.268;2023-07-28T08:45:35;3.17;;;2.93;;
11078;SDS011;5592;49.234;7.268;2023-07-28T08:48:01;3.90;;;2.90;;
11078;SDS011;5592;49.234;7.268;2023-07-28T08:50:26;4.30;;;3.30;;
11078;SDS011;5592;49.234;7.268;2023-07-28T08:52:52;5.77;;;2.77;;
11078;SDS011;5592;49.234;7.268;2023-07-28T08:55:19;4.30;;;2.60;;
11078;SDS011;5592;49.234;7.268;2023-07-28T08:57:44;3.20;;;2.70;;
11078;SDS011;5592;49.234;7.268;2023-07-28T09:00:11;5.73;;;3.00;;
11078;SDS011;5592;49.234;7.268;2023-07-28T09:02:41;7.00;;;2.80;;
11078;SDS011;5592;49.234;7.268;2023-07-28T09:05:07;5.70;;;2.87;;
11078;SDS011;5592;49.234;7.268;2023-07-28T09:07:43;4.50;;;3.00;;
11078;SDS011;5592;49.234;7.268;2023-07-28T09:10:08;5.83;;;2.70;;
11078;SDS011;5592;49.234;7.268;2023-07-28T09:12:34;3.00;;;2.70;;
11078;SDS011;5592;49.234;7.268;2023-07-28T09:15:02;3.50;;;3.20;;
11078;SDS011;5592;49.234;7.268;2023-07-28T09:17:31;3.03;;;2.70;;
11078;SDS011;5592;49.234;7.268;2023-07-28T09:19:58;4.20;;;2.37;;
11078;SDS011;5592;49.234;7.268;2023-07-28T09:22:23;3.20;;;2.90;;
11078;SDS011;5592;49.234;7.268;2023-07-28T09:24:49;3.40;;;2.20;;
11078;SDS011;5592;49.234;7.268;2023-07-28T09:27:21;3.00;;;2.40;;
11078;SDS011;5592;49.234;7.268;2023-07-28T09:29:54;4.20;;;2.37;;
11078;SDS011;5592;49.234;7.268;2023-07-28T09:32:28;3.80;;;2.17;;
11078;SDS011;5592;49.234;7.268;2023-07-28T09:35:05;3.60;;;2.53;;
11078;SDS011;5592;49.234;7.268;2023-07-28T09:37:33;3.33;;;2.00;;
11078;SDS011;5592;49.234;7.268;2023-07-28T09:40:02;2.50;;;2.30;;
11078;SDS011;5592;49.234;7.268;2023-07-28T09:42:30;2.50;;;2.30;;
11078;SDS011;5592;49.234;7.268;2023-07-28T09:44:57;2.50;;;2.30;;
11078;SDS011;5592;49.234;7.268;2023-07-28T09:47:23;4.93;;;2.80;;
11078;SDS011;5592;49.234;7.268;2023-07-28T09:49:49;5.60;;;2.80;;
11078;SDS011;5592;49.234;7.268;2023-07-28T09:52:16;6.33;;;3.03;;
11078;SDS011;5592;49.234;7.268;2023-07-28T09:54:44;5.30;;;3.47;;
11078;SDS011;5592;49.234;7.268;2023-07-28T09:57:13;7.47;;;2.73;;
11078;SDS011;5592;49.234;7.268;2023-07-28T09:59:45;2.57;;;2.37;;
11078;SDS011;5592;49.234;7.268;2023-07-28T10:02:12;2.97;;;2.60;;
11078;SDS011;5592;49.234;7.268;2023-07-28T10:04:38;3.03;;;2.60;;
11078;SDS011;5592;49.234;7.268;2023-07-28T10:07:04;2.63;;;2.37;;
11078;SDS011;5592;49.234;7.268;2023-07-28T10:09:32;6.60;;;2.60;;
11078;SDS011;5592;49.234;7.268;2023-07-28T10:11:58;3.77;;;2.33;;
11078;SDS011;5592;49.234;7.268;2023-07-28T10:14:25;4.43;;;2.70;;
11078;SDS011;5592;49.234;7.268;2023-07-28T10:16:56;2.80;;;2.50;;
11078;SDS011;5592;49.234;7.268;2023-07-28T10:19:26;2.73;;;2.13;;
11078;SDS011;5592;49.234;7.268;2023-07-28T10:22:01;2.30;;;2.10;;
11078;SDS011;5592;49.234;7.268;2023-07-28T10:24:49;3.60;;;2.30;;
11078;SDS011;5592;49.234;7.268;2023-07-28T10:27:28;2.40;;;2.10;;
11078;SDS011;5592;49.234;7.268;2023-07-28T10:30:00;2.97;;;2.60;;
11078;SDS011;5592;49.234;7.268;2023-07-28T10:32:34;3.40;;;2.70;;
11078;SDS011;5592;49.234;7.268;2023-07-28T10:37:37;5.43;;;2.90;;
11078;SDS011;5592;49.234;7.268;2023-07-28T10:42:55;3.00;;;2.70;;
11078;SDS011;5592;49.234;7.268;2023-07-28T10:45:22;2.43;;;2.23;;
11078;SDS011;5592;49.234;7.268;2023-07-28T10:47:48;3.23;;;2.10;;
11078;SDS011;5592;49.234;7.268;2023-07-28T10:50:15;2.70;;;2.10;;
11078;SDS011;5592;49.234;7.268;2023-07-28T10:52:41;2.60;;;2.40;;
11078;SDS011;5592;49.234;7.268;2023-07-28T10:57:40;5.27;;;2.00;;
11078;SDS011;5592;49.234;7.268;2023-07-28T11:00:08;1.97;;;1.87;;
11078;SDS011;5592;49.234;7.268;2023-07-28T11:02:47;2.70;;;2.03;;
11078;SDS011;5592;49.234;7.268;2023-07-28T11:05:19;2.23;;;2.03;;
11078;SDS011;5592;49.234;7.268;2023-07-28T11:07:47;3.97;;;2.00;;
11078;SDS011;5592;49.234;7.268;2023-07-28T11:10:14;3.30;;;2.27;;
11078;SDS011;5592;49.234;7.268;2023-07-28T11:12:43;1.70;;;1.60;;
11078;SDS011;5592;49.234;7.268;2023-07-28T11:15:10;4.13;;;2.07;;
11078;SDS011;5592;49.234;7.268;2023-07-28T11:17:38;1.83;;;1.60;;
11078;SDS011;5592;49.234;7.268;2023-07-28T11:20:14;3.40;;;2.17;;
11078;SDS011;5592;49.234;7.268;2023-07-28T11:22:40;3.23;;;1.83;;
11078;SDS011;5592;49.234;7.268;2023-07-28T11:25:06;2.27;;;2.00;;
11078;SDS011;5592;49.234;7.268;2023-07-28T11:27:34;2.20;;;1.97;;
11078;SDS011;5592;49.234;7.268;2023-07-28T11:30:04;2.37;;;1.83;;
11078;SDS011;5592;49.234;7.268;2023-07-28T11:32:33;1.93;;;1.70;;
11078;SDS011;5592;49.234;7.268;2023-07-28T11:35:03;7.30;;;1.90;;
11078;SDS011;5592;49.234;7.268;2023-07-28T11:37:34;2.43;;;2.23;;
11078;SDS011;5592;49.234;7.268;2023-07-28T11:40:01;2.40;;;2.20;;
11078;SDS011;5592;49.234;7.268;2023-07-28T11:42:31;2.07;;;1.60;;
11078;SDS011;5592;49.234;7.268;2023-07-28T11:45:03;1.77;;;1.60;;
11078;SDS011;5592;49.234;7.268;2023-07-28T11:47:29;2.70;;;1.80;;
11078;SDS011;5592;49.234;7.268;2023-07-28T11:49:55;3.50;;;1.90;;
11078;SDS011;5592;49.234;7.268;2023-07-28T11:52:23;2.23;;;1.73;;
11078;SDS011;5592;49.234;7.268;2023-07-28T11:54:50;2.27;;;1.90;;
11078;SDS011;5592;49.234;7.268;2023-07-28T11:57:17;2.70;;;2.07;;
11078;SDS011;5592;49.234;7.268;2023-07-28T11:59:42;2.63;;;1.87;;
11078;SDS011;5592;49.234;7.268;2023-07-28T12:02:09;2.30;;;1.90;;
11078;SDS011;5592;49.234;7.268;2023-07-28T12:04:36;3.30;;;2.40;;
11078;SDS011;5592;49.234;7.268;2023-07-28T12:07:09;2.80;;;2.50;;
11078;SDS011;5592;49.234;7.268;2023-07-28T12:12:18;3.50;;;3.20;;
11078;SDS011;5592;49.234;7.268;2023-07-28T12:14:48;4.80;;;3.33;;
11078;SDS011;5592;49.234;7.268;2023-07-28T12:17:17;4.10;;;3.00;;
11078;SDS011;5592;49.234;7.268;2023-07-28T12:19:57;3.80;;;3.17;;
11078;SDS011;5592;49.234;7.268;2023-07-28T12:22:23;3.10;;;2.80;;
11078;SDS011;5592;49.234;7.268;2023-07-28T12:24:48;4.60;;;3.50;;
11078;SDS011;5592;49.234;7.268;2023-07-28T12:27:14;3.90;;;2.73;;
11078;SDS011;5592;49.234;7.268;2023-07-28T12:29:41;3.80;;;2.50;;
11078;SDS011;5592;49.234;7.268;2023-07-28T12:32:06;2.43;;;2.23;;
11078;SDS011;5592;49.234;7.268;2023-07-28T12:34:32;1.67;;;1.57;;
11078;SDS011;5592;49.234;7.268;2023-07-28T12:36:58;3.03;;;2.47;;
11078;SDS011;5592;49.234;7.268;2023-07-28T12:39:24;2.90;;;1.70;;
11078;SDS011;5592;49.234;7.268;2023-07-28T12:41:49;1.60;;;1.50;;
11078;SDS011;5592;49.234;7.268;2023-07-28T12:44:19;1.40;;;1.30;;
11078;SDS011;5592;49.234;7.268;2023-07-28T12:46:45;2.07;;;1.50;;
11078;SDS011;5592;49.234;7.268;2023-07-28T12:49:10;2.30;;;1.50;;
11078;SDS011;5592;49.234;7.268;2023-07-28T12:51:36;1.37;;;1.27;;
11078;SDS011;5592;49.234;7.268;2023-07-28T12:54:02;1.90;;;1.47;;
11078;SDS011;5592;49.234;7.268;2023-07-28T12:56:27;1.60;;;1.50;;
11078;SDS011;5592;49.234;7.268;2023-07-28T12:58:53;1.33;;;1.23;;
11078;SDS011;5592;49.234;7.268;2023-07-28T13:01:18;1.63;;;1.10;;
11078;SDS011;5592;49.234;7.268;2023-07-28T13:03:44;2.10;;;1.40;;
11078;SDS011;5592;49.234;7.268;2023-07-28T13:06:09;3.83;;;1.50;;
11078;SDS011;5592;49.234;7.268;2023-07-28T13:08:35;8.00;;;1.60;;
11078;SDS011;5592;49.234;7.268;2023-07-28T13:11:01;1.40;;;1.30;;
11078;SDS011;5592;49.234;7.268;2023-07-28T13:13:26;3.23;;;1.77;;
11078;SDS011;5592;49.234;7.268;2023-07-28T13:15:55;1.50;;;1.40;;
11078;SDS011;5592;49.234;7.268;2023-07-28T13:18:20;3.10;;;1.60;;
11078;SDS011;5592;49.234;7.268;2023-07-28T13:20:46;5.60;;;2.10;;
11078;SDS011;5592;49.234;7.268;2023-07-28T13:23:12;2.67;;;1.60;;
11078;SDS011;5592;49.234;7.268;2023-07-28T13:25:37;5.23;;;1.93;;
11078;SDS011;5592;49.234;7.268;2023-07-28T13:28:03;2.40;;;1.90;;
11078;SDS011;5592;49.234;7.268;2023-07-28T13:30:29;1.70;;;1.60;;
11078;SDS011;5592;49.234;7.268;2023-07-28T13:32:55;1.73;;;1.63;;
11078;SDS011;5592;49.234;7.268;2023-07-28T13:35:21;3.00;;;1.80;;
11078;SDS011;5592;49.234;7.268;2023-07-28T13:37:46;2.20;;;1.70;;
11078;SDS011;5592;49.234;7.268;2023-07-28T13:40:12;2.57;;;2.10;;
11078;SDS011;5592;49.234;7.268;2023-07-28T13:42:37;1.93;;;1.43;;
11078;SDS011;5592;49.234;7.268;2023-07-28T13:45:03;2.30;;;2.10;;
11078;SDS011;5592;49.234;7.268;2023-07-28T13:47:29;2.63;;;2.17;;
11078;SDS011;5592;49.234;7.268;2023-07-28T13:49:54;2.40;;;2.10;;
11078;SDS011;5592;49.234;7.268;2023-07-28T13:52:20;1.70;;;1.60;;
11078;SDS011;5592;49.234;7.268;2023-07-28T13:54:46;3.03;;;1.70;;
11078;SDS011;5592;49.234;7.268;2023-07-28T13:57:11;2.03;;;1.93;;
11078;SDS011;5592;49.234;7.268;2023-07-28T13:59:38;1.93;;;1.73;;
11078;SDS011;5592;49.234;7.268;2023-07-28T14:02:03;1.80;;;1.70;;
11078;SDS011;5592;49.234;7.268;2023-07-28T14:04:29;4.40;;;1.90;;
11078;SDS011;5592;49.234;7.268;2023-07-28T14:06:54;4.63;;;1.50;;
11078;SDS011;5592;49.234;7.268;2023-07-28T14:09:20;4.70;;;1.77;;
11078;SDS011;5592;49.234;7.268;2023-07-28T14:11:45;3.90;;;1.57;;
11078;SDS011;5592;49.234;7.268;2023-07-28T14:14:11;2.80;;;1.47;;
11078;SDS011;5592;49.234;7.268;2023-07-28T14:16:36;1.90;;;1.80;;
11078;SDS011;5592;49.234;7.268;2023-07-28T14:19:02;2.10;;;2.00;;
11078;SDS011;5592;49.234;7.268;2023-07-28T14:21:28;1.80;;;1.70;;
11078;SDS011;5592;49.234;7.268;2023-07-28T14:23:53;2.27;;;1.80;;
11078;SDS011;5592;49.234;7.268;2023-07-28T14:26:18;1.73;;;1.40;;
11078;SDS011;5592;49.234;7.268;2023-07-28T14:28:44;5.40;;;1.50;;
11078;SDS011;5592;49.234;7.268;2023-07-28T14:31:10;2.10;;;1.80;;
11078;SDS011;5592;49.234;7.268;2023-07-28T14:33:38;6.20;;;1.50;;
11078;SDS011;5592;49.234;7.268;2023-07-28T14:36:03;2.00;;;1.53;;
11078;SDS011;5592;49.234;7.268;2023-07-28T14:38:29;1.63;;;1.53;;
11078;SDS011;5592;49.234;7.268;2023-07-28T14:40:54;2.00;;;1.47;;
11078;SDS011;5592;49.234;7.268;2023-07-28T14:43:20;1.87;;;1.60;;
11078;SDS011;5592;49.234;7.268;2023-07-28T14:45:48;1.40;;;1.30;;
11078;SDS011;5592;49.234;7.268;2023-07-28T14:48:14;2.30;;;1.30;;
11078;SDS011;5592;49.234;7.268;2023-07-28T14:50:40;1.20;;;1.10;;
11078;SDS011;5592;49.234;7.268;2023-07-28T14:53:27;1.87;;;1.37;;
11078;SDS011;5592;49.234;7.268;2023-07-28T14:55:59;3.63;;;1.77;;
11078;SDS011;5592;49.234;7.268;2023-07-28T14:58:25;1.60;;;1.50;;
11078;SDS011;5592;49.234;7.268;2023-07-28T15:00:52;1.60;;;1.50;;
11078;SDS011;5592;49.234;7.268;2023-07-28T15:03:17;1.57;;;1.47;;
11078;SDS011;5592;49.234;7.268;2023-07-28T15:05:43;1.60;;;1.50;;
11078;SDS011;5592;49.234;7.268;2023-07-28T15:08:08;2.23;;;1.20;;
11078;SDS011;5592;49.234;7.268;2023-07-28T15:10:34;1.53;;;1.43;;
11078;SDS011;5592;49.234;7.268;2023-07-28T15:12:59;1.50;;;1.40;;